createdAt,value
2022-11-02T00:00:26.131Z,101176.56
2022-11-02T00:02:52.476Z,101179.56
2022-11-02T00:05:18.847Z,101181.91
2022-11-02T00:07:46.466Z,101180.22
2022-11-02T00:10:12.767Z,101178.91
2022-11-02T00:12:39.058Z,101179.72
2022-11-02T00:15:05.988Z,101177.56
2022-11-02T00:17:33.365Z,101184.06
2022-11-02T00:19:59.783Z,101188.41
2022-11-02T00:22:26.423Z,101186.56
2022-11-02T00:24:54.086Z,101190.06
2022-11-02T00:27:20.489Z,101189.22
2022-11-02T00:29:46.844Z,101188.59
2022-11-02T00:32:13.142Z,101193.91
2022-11-02T00:34:39.410Z,101192.91
2022-11-02T00:37:05.701Z,101191.59
2022-11-02T00:39:31.973Z,101188.22
2022-11-02T00:41:59.601Z,101189.25
2022-11-02T00:44:25.885Z,101187.41
2022-11-02T00:46:52.151Z,101197.41
2022-11-02T00:49:18.431Z,101193.06
2022-11-02T00:51:44.713Z,101191.91
2022-11-02T00:54:10.980Z,101187.25
2022-11-02T00:56:37.272Z,101203.09
2022-11-02T00:59:04.979Z,101194.25
2022-11-02T01:01:31.449Z,101196.25
2022-11-02T01:03:57.939Z,101199.09
2022-11-02T01:06:24.246Z,101197.09
2022-11-02T01:08:50.531Z,101197.75
2022-11-02T01:11:17.544Z,101213.59
2022-11-02T01:13:44.378Z,101205.94
2022-11-02T01:16:12.555Z,101203.25
2022-11-02T01:18:38.872Z,101213.09
2022-11-02T01:21:05.355Z,101210.09
2022-11-02T01:23:32.135Z,101216.63
2022-11-02T01:25:58.421Z,101219.59
2022-11-02T01:28:24.773Z,101213.09
2022-11-02T01:30:51.057Z,101223.44
2022-11-02T01:33:18.665Z,101220.59
2022-11-02T01:35:44.955Z,101227.09
2022-11-02T01:38:11.236Z,101225.78
2022-11-02T01:40:37.605Z,101229.75
2022-11-02T01:43:18.551Z,101226.94
2022-11-02T01:45:45.276Z,101231.59
2022-11-02T01:48:11.662Z,101231.22
2022-11-02T01:50:39.467Z,101235.72
2022-11-02T01:53:05.763Z,101233.25
2022-11-02T01:55:33.968Z,101231.06
2022-11-02T01:58:02.278Z,101228.19
2022-11-02T02:00:28.897Z,101231.19
2022-11-02T02:02:58.777Z,101233.47
2022-11-02T02:05:25.546Z,101233.84
2022-11-02T02:07:53.812Z,101243.81
2022-11-02T02:10:20.327Z,101243.16
2022-11-02T02:12:47.564Z,101248.16
2022-11-02T02:15:14.342Z,101246.34
2022-11-02T02:17:45.098Z,101248.19
2022-11-02T02:20:17.761Z,101249.53
2022-11-02T02:22:57.236Z,101251.31
2022-11-02T02:25:27.543Z,101249.16
2022-11-02T02:28:04.560Z,101245.66
2022-11-02T02:30:33.952Z,101254.19
2022-11-02T02:33:03.133Z,101253.19
2022-11-02T02:35:33.604Z,101256.53
2022-11-02T02:38:01.651Z,101259.69
2022-11-02T02:40:30.960Z,101255.31
2022-11-02T02:43:02.397Z,101259.16
2022-11-02T02:45:33.223Z,101262.13
2022-11-02T02:48:01.953Z,101261.09
2022-11-02T02:50:30.380Z,101263.09
2022-11-02T02:52:58.169Z,101264.44
2022-11-02T02:55:27.773Z,101263.78
2022-11-02T02:57:54.490Z,101264.75
2022-11-02T03:00:22.148Z,101274.59
2022-11-02T03:02:49.378Z,101268.59
2022-11-02T03:05:22.981Z,101270.63
2022-11-02T03:07:49.523Z,101276.59
2022-11-02T03:10:19.978Z,101267.75
2022-11-02T03:12:50.644Z,101272.75
2022-11-02T03:15:20.472Z,101278.25
2022-11-02T03:17:53.719Z,101274.44
2022-11-02T03:20:25.825Z,101270.09
2022-11-02T03:22:55.566Z,101271.25
2022-11-02T03:25:25.097Z,101280.25
2022-11-02T03:27:55.396Z,101282.75
2022-11-02T03:30:22.954Z,101277.72
2022-11-02T03:32:56.189Z,101295.09
2022-11-02T03:35:26.023Z,101288.28
2022-11-02T03:37:56.038Z,101290.91
2022-11-02T03:40:25.885Z,101303.06
2022-11-02T03:42:53.083Z,101315.00
2022-11-02T03:45:20.847Z,101313.72
2022-11-02T03:47:49.282Z,101319.34
2022-11-02T03:50:19.393Z,101316.16
2022-11-02T03:52:46.890Z,101314.50
2022-11-02T03:55:16.276Z,101318.66
2022-11-02T03:57:44.164Z,101325.84
2022-11-02T04:00:11.783Z,101327.66
2022-11-02T04:02:38.973Z,101331.84
2022-11-02T04:05:05.696Z,101341.34
2022-11-02T04:07:34.666Z,101347.16
2022-11-02T04:10:00.969Z,101353.81
2022-11-02T04:12:27.266Z,101354.28
2022-11-02T04:14:53.551Z,101362.97
2022-11-02T04:17:19.926Z,101358.47
2022-11-02T04:19:49.684Z,101366.56
2022-11-02T04:22:16.534Z,101359.06
2022-11-02T04:24:44.234Z,101362.56
2022-11-02T04:27:10.515Z,101364.94
2022-11-02T04:29:36.853Z,101368.25
2022-11-02T04:32:03.169Z,101361.75
2022-11-02T04:34:29.463Z,101367.25
2022-11-02T04:36:55.761Z,101372.19
2022-11-02T04:39:22.044Z,101372.97
2022-11-02T04:41:49.685Z,101384.78
2022-11-02T04:44:15.971Z,101381.28
2022-11-02T04:46:43.243Z,101380.00
2022-11-02T04:49:10.057Z,101390.94
2022-11-02T04:51:36.460Z,101386.75
2022-11-02T04:54:03.312Z,101387.59
2022-11-02T04:56:29.750Z,101394.06
2022-11-02T04:58:57.911Z,101393.72
2022-11-02T05:01:25.238Z,101398.56
2022-11-02T05:03:52.379Z,101402.53
2022-11-02T05:06:19.492Z,101403.81
2022-11-02T05:08:46.039Z,101407.53
2022-11-02T05:11:12.370Z,101410.97
2022-11-02T05:13:39.442Z,101418.28
2022-11-02T05:16:09.962Z,101423.53
2022-11-02T05:18:36.241Z,101426.13
2022-11-02T05:21:02.561Z,101428.00
2022-11-02T05:23:29.421Z,101431.38
2022-11-02T05:25:56.453Z,101443.19
2022-11-02T05:28:23.101Z,101439.75
2022-11-02T05:30:49.598Z,101443.19
2022-11-02T05:33:17.330Z,101443.56
2022-11-02T05:35:43.620Z,101455.75
2022-11-02T05:38:09.899Z,101458.34
2022-11-02T05:40:36.379Z,101460.81
2022-11-02T05:43:03.458Z,101476.38
2022-11-02T05:45:30.012Z,101481.28
2022-11-02T05:47:56.574Z,101487.16
2022-11-02T05:50:24.205Z,101485.13
2022-11-02T05:52:50.497Z,101481.06
2022-11-02T05:55:16.784Z,101494.63
2022-11-02T05:57:43.087Z,101500.97
2022-11-02T06:00:09.819Z,101508.13
2022-11-02T06:02:36.082Z,101510.59
2022-11-02T06:05:02.446Z,101518.09
2022-11-02T06:07:30.209Z,101512.22
2022-11-02T06:09:56.505Z,101520.19
2022-11-02T06:12:22.823Z,101531.00
2022-11-02T06:14:49.104Z,101535.19
2022-11-02T06:17:15.411Z,101534.59
2022-11-02T06:19:41.713Z,101541.81
2022-11-02T06:22:07.970Z,101534.97
2022-11-02T06:24:35.601Z,101545.91
2022-11-02T06:27:01.875Z,101545.66
2022-11-02T06:29:28.165Z,101544.53
2022-11-02T06:31:54.460Z,101560.00
2022-11-02T06:34:20.736Z,101560.44
2022-11-02T06:36:47.006Z,101552.66
2022-11-02T06:39:13.293Z,101569.09
2022-11-02T06:41:40.907Z,101576.63
2022-11-02T06:44:07.184Z,101591.97
2022-11-02T06:46:33.464Z,101585.53
2022-11-02T06:48:59.844Z,101597.16
2022-11-02T06:51:26.149Z,101608.13
2022-11-02T06:53:52.435Z,101607.72
2022-11-02T06:56:18.703Z,101616.13
2022-11-02T06:58:46.336Z,101616.28
2022-11-02T07:01:12.729Z,101623.69
2022-11-02T07:03:39.134Z,101643.31
2022-11-02T07:06:09.676Z,101632.28
2022-11-02T07:08:39.176Z,101642.91
2022-11-02T07:11:05.573Z,101646.09
2022-11-02T07:13:31.869Z,101654.25
2022-11-02T07:15:59.485Z,101661.56
2022-11-02T07:18:25.770Z,101660.38
2022-11-02T07:20:52.059Z,101671.88
2022-11-02T07:23:18.343Z,101678.34
2022-11-02T07:25:44.618Z,101687.16
2022-11-02T07:28:10.885Z,101694.72
2022-11-02T07:30:37.193Z,101695.31
2022-11-02T07:33:05.239Z,101697.97
2022-11-02T07:35:31.732Z,101705.63
2022-11-02T07:37:58.899Z,101701.56
2022-11-02T07:40:25.706Z,101717.69
2022-11-02T07:42:52.009Z,101718.81
2022-11-02T07:45:18.305Z,101710.53
2022-11-02T07:47:45.283Z,101712.38
2022-11-02T07:50:13.412Z,101716.13
2022-11-02T07:52:46.052Z,101720.47
2022-11-02T07:55:12.729Z,101724.81
2022-11-02T07:57:39.025Z,101730.41
2022-11-02T08:00:05.996Z,101739.78
2022-11-02T08:02:32.363Z,101732.09
2022-11-02T08:04:58.708Z,101736.72
2022-11-02T08:07:26.322Z,101737.69
2022-11-02T08:09:52.731Z,101750.84
2022-11-02T08:12:18.982Z,101752.25
2022-11-02T08:14:45.286Z,101750.13
2022-11-02T08:17:11.554Z,101747.16
2022-11-02T08:19:37.837Z,101744.50
2022-11-02T08:22:04.143Z,101741.38
2022-11-02T08:24:31.782Z,101737.59
2022-11-02T08:26:58.058Z,101748.06
2022-11-02T08:29:24.343Z,101742.75
2022-11-02T08:31:50.666Z,101748.75
2022-11-02T08:34:16.960Z,101755.09
2022-11-02T08:36:43.233Z,101756.56
2022-11-02T08:39:12.309Z,101774.25
2022-11-02T08:41:42.348Z,101772.81
2022-11-02T08:44:08.632Z,101767.59
2022-11-02T08:46:34.932Z,101768.53
2022-11-02T08:49:01.284Z,101772.41
2022-11-02T08:51:27.556Z,101767.78
2022-11-02T08:53:54.110Z,101773.50
2022-11-02T08:56:20.378Z,101774.34
2022-11-02T08:58:48.017Z,101768.03
2022-11-02T09:01:14.366Z,101783.16
2022-11-02T09:03:40.682Z,101784.44
2022-11-02T09:06:07.083Z,101785.91
2022-11-02T09:08:33.407Z,101779.75
2022-11-02T09:11:00.785Z,101794.22
2022-11-02T09:13:27.431Z,101790.91
2022-11-02T09:15:55.996Z,101794.81
2022-11-02T09:18:22.481Z,101782.88
2022-11-02T09:20:48.976Z,101786.97
2022-11-02T09:23:15.360Z,101791.88
2022-11-02T09:25:41.669Z,101796.78
2022-11-02T09:28:08.191Z,101795.31
2022-11-02T09:30:34.674Z,101788.91
2022-11-02T09:33:03.552Z,101799.00
2022-11-02T09:35:31.080Z,101801.03
2022-11-02T09:37:57.361Z,101798.75
2022-11-02T09:40:24.443Z,101792.94
2022-11-02T09:42:56.811Z,101803.47
2022-11-02T09:45:23.214Z,101801.34
2022-11-02T09:50:43.485Z,101805.22
2022-11-02T09:53:12.857Z,101807.28
2022-11-02T09:55:42.646Z,101804.97
2022-11-02T09:58:13.574Z,101810.00
2022-11-02T10:00:40.492Z,101828.41
2022-11-02T10:03:11.954Z,101818.22
2022-11-02T10:05:42.373Z,101821.06
2022-11-02T10:08:23.592Z,101824.41
2022-11-02T10:10:53.691Z,101821.75
2022-11-02T10:13:27.073Z,101837.28
2022-11-02T10:15:55.721Z,101838.09
2022-11-02T10:18:23.991Z,101837.31
2022-11-02T10:20:53.547Z,101848.06
2022-11-02T10:23:24.767Z,101837.75
2022-11-02T10:25:51.302Z,101844.09
2022-11-02T10:28:19.056Z,101847.88
2022-11-02T10:30:45.545Z,101848.56
2022-11-02T10:33:14.000Z,101843.25
2022-11-02T10:36:04.684Z,101848.31
2022-11-02T10:38:37.993Z,101848.97
2022-11-02T10:41:18.190Z,101862.06
2022-11-02T10:43:55.440Z,101865.28
2022-11-02T10:46:29.114Z,101856.09
2022-11-02T10:49:00.638Z,101855.25
2022-11-02T10:51:28.768Z,101853.03
2022-11-02T10:53:56.607Z,101856.84
2022-11-02T10:56:23.803Z,101854.16
2022-11-02T10:58:52.544Z,101860.22
2022-11-02T11:01:18.907Z,101851.38
2022-11-02T11:03:58.887Z,101859.06
2022-11-02T11:06:26.523Z,101863.31
2022-11-02T11:08:58.369Z,101875.69
2022-11-02T11:11:28.045Z,101866.00
2022-11-02T11:16:44.791Z,101859.84
2022-11-02T11:22:21.118Z,101863.31
2022-11-02T11:24:47.482Z,101868.00
2022-11-02T11:27:16.563Z,101864.50
2022-11-02T11:29:46.605Z,101862.91
2022-11-02T11:32:15.119Z,101853.19
2022-11-02T11:34:43.684Z,101853.03
2022-11-02T11:37:11.652Z,101859.84
2022-11-02T11:39:39.215Z,101850.97
2022-11-02T11:42:12.993Z,101861.13
2022-11-02T11:44:43.692Z,101862.50
2022-11-02T11:47:10.757Z,101840.78
2022-11-02T11:52:32.640Z,101839.63
2022-11-02T11:54:59.940Z,101835.09
2022-11-02T11:57:27.796Z,101835.94
2022-11-02T11:59:56.276Z,101854.91
2022-11-02T12:02:23.409Z,101846.34
2022-11-02T12:04:49.886Z,101842.66
2022-11-02T12:07:28.009Z,101846.38
2022-11-02T12:10:00.268Z,101850.88
2022-11-02T12:12:31.354Z,101851.38
2022-11-02T12:15:07.047Z,101859.06
2022-11-02T12:17:45.998Z,101849.75
2022-11-02T12:20:16.043Z,101841.25
2022-11-02T12:22:48.109Z,101841.97
2022-11-02T12:25:20.785Z,101832.28
2022-11-02T12:27:51.734Z,101815.28
2022-11-02T12:30:21.126Z,101818.00
2022-11-02T12:32:58.009Z,101811.13
2022-11-02T12:35:42.801Z,101807.94
2022-11-02T12:38:36.022Z,101803.91
2022-11-02T12:41:03.714Z,101808.44
2022-11-02T12:43:35.833Z,101802.88
2022-11-02T12:46:07.254Z,101796.22
2022-11-02T12:48:39.057Z,101793.72
2022-11-02T12:51:08.966Z,101795.91
2022-11-02T12:53:39.471Z,101790.56
2022-11-02T12:56:08.773Z,101791.59
2022-11-02T12:58:36.722Z,101792.25
2022-11-02T13:01:13.338Z,101792.09
2022-11-02T13:03:43.581Z,101792.09
2022-11-02T13:06:11.962Z,101794.94
2022-11-02T13:08:41.544Z,101796.47
2022-11-02T13:11:10.400Z,101790.78
2022-11-02T13:13:39.241Z,101788.91
2022-11-02T13:16:08.094Z,101783.22
2022-11-02T13:18:38.414Z,101785.03
2022-11-02T13:21:05.114Z,101785.84
2022-11-02T13:23:34.743Z,101780.00
2022-11-02T13:26:02.868Z,101785.47
2022-11-02T13:28:33.686Z,101778.22
2022-11-02T13:31:00.524Z,101773.38
2022-11-02T13:33:30.688Z,101770.72
2022-11-02T13:35:56.978Z,101763.88
2022-11-02T13:38:28.119Z,101765.38
2022-11-02T13:41:00.763Z,101758.03
2022-11-02T13:43:43.307Z,101764.38
2022-11-02T13:46:15.360Z,101754.47
2022-11-02T13:48:54.496Z,101762.69
2022-11-02T13:51:25.326Z,101757.81
2022-11-02T13:53:53.280Z,101766.06
2022-11-02T13:56:22.059Z,101757.38
2022-11-02T13:58:49.448Z,101749.19
2022-11-02T14:01:17.917Z,101750.56
2022-11-02T14:03:47.572Z,101749.72
2022-11-02T14:06:16.183Z,101757.69
2022-11-02T14:08:47.825Z,101750.50
2022-11-02T14:11:24.737Z,101743.47
2022-11-02T14:14:05.902Z,101745.13
2022-11-02T14:16:42.952Z,101741.94
2022-11-02T14:19:22.604Z,101733.75
2022-11-02T14:22:19.068Z,101736.78
2022-11-02T14:25:04.522Z,101737.56
2022-11-02T14:27:31.064Z,101734.19
2022-11-02T14:29:57.638Z,101735.69
2022-11-02T14:32:31.119Z,101728.00
2022-11-02T14:35:03.564Z,101726.16
2022-11-02T14:37:49.660Z,101731.31
2022-11-02T14:40:28.842Z,101732.94
2022-11-02T14:43:05.072Z,101736.41
2022-11-02T14:45:52.340Z,101727.34
2022-11-02T14:48:18.674Z,101725.28
2022-11-02T14:50:56.784Z,101726.97
2022-11-02T14:53:25.052Z,101728.75
2022-11-02T14:55:54.145Z,101728.75
2022-11-02T14:58:22.661Z,101728.22
2022-11-02T15:00:57.205Z,101731.53
2022-11-02T15:03:32.572Z,101724.66
2022-11-02T15:06:03.375Z,101721.38
2022-11-02T15:08:31.054Z,101722.53
2022-11-02T15:10:58.678Z,101719.38
2022-11-02T15:13:45.768Z,101720.00
2022-11-02T15:16:16.069Z,101705.63
2022-11-02T15:18:42.373Z,101710.03
2022-11-02T15:21:29.785Z,101709.00
2022-11-02T15:24:00.306Z,101697.94
2022-11-02T15:26:31.047Z,101704.28
2022-11-02T15:29:01.093Z,101695.75
2022-11-02T15:31:28.009Z,101690.56
2022-11-02T15:33:56.448Z,101695.00
2022-11-02T15:36:27.764Z,101680.44
2022-11-02T15:38:54.198Z,101675.44
2022-11-02T15:41:26.108Z,101676.72
2022-11-02T15:44:16.265Z,101676.31
2022-11-02T15:46:50.969Z,101667.56
2022-11-02T15:49:25.430Z,101663.84
2022-11-02T15:51:56.006Z,101661.97
2022-11-02T15:54:28.354Z,101659.34
2022-11-02T15:57:00.293Z,101666.25
2022-11-02T15:59:45.310Z,101661.00
2022-11-02T16:02:23.595Z,101661.91
2022-11-02T16:04:50.905Z,101673.16
2022-11-02T16:07:17.793Z,101663.25
2022-11-02T16:09:44.168Z,101661.50
2022-11-02T16:12:11.213Z,101661.94
2022-11-02T16:14:37.504Z,101655.38
2022-11-02T16:17:03.836Z,101649.66
2022-11-02T16:19:31.561Z,101653.75
2022-11-02T16:22:01.374Z,101660.22
2022-11-02T16:24:28.193Z,101651.81
2022-11-02T16:26:54.487Z,101653.13
2022-11-02T16:29:25.732Z,101659.84
2022-11-02T16:31:52.150Z,101654.16
2022-11-02T16:34:19.858Z,101660.75
2022-11-02T16:36:47.748Z,101656.53
2022-11-02T16:39:15.509Z,101659.53
2022-11-02T16:41:46.246Z,101648.31
2022-11-02T16:44:17.232Z,101657.56
2022-11-02T16:46:47.805Z,101652.25
2022-11-02T16:49:15.950Z,101663.22
2022-11-02T16:51:49.544Z,101656.47
2022-11-02T16:54:26.189Z,101655.06
2022-11-02T16:56:53.133Z,101649.22
2022-11-02T16:59:19.543Z,101649.50
2022-11-02T17:01:45.956Z,101652.31
2022-11-02T17:04:14.220Z,101646.28
2022-11-02T17:06:40.701Z,101643.75
2022-11-02T17:09:19.773Z,101649.09
2022-11-02T17:11:46.332Z,101641.94
2022-11-02T17:14:12.649Z,101647.25
2022-11-02T17:16:58.667Z,101641.94
2022-11-02T17:19:43.849Z,101647.13
2022-11-02T17:22:11.323Z,101646.16
2022-11-02T17:24:39.076Z,101641.66
2022-11-02T17:27:20.252Z,101640.41
2022-11-02T17:29:46.569Z,101645.72
2022-11-02T17:32:15.025Z,101645.72
2022-11-02T17:34:47.876Z,101643.91
2022-11-02T17:37:21.097Z,101645.59
2022-11-02T17:39:48.771Z,101645.72
2022-11-02T17:42:16.038Z,101650.91
2022-11-02T17:44:42.385Z,101647.53
2022-11-02T17:47:10.807Z,101645.03
2022-11-02T17:49:37.112Z,101645.31
2022-11-02T17:52:03.552Z,101648.94
2022-11-02T17:54:29.851Z,101644.78
2022-11-02T17:56:57.480Z,101643.38
2022-11-02T17:59:23.801Z,101639.28
2022-11-02T18:01:50.185Z,101643.63
2022-11-02T18:04:16.553Z,101639.16
2022-11-02T18:06:42.836Z,101636.63
2022-11-02T18:09:09.150Z,101639.41
2022-11-02T18:11:35.518Z,101634.53
2022-11-02T18:14:03.568Z,101632.13
2022-11-02T18:16:29.865Z,101627.66
2022-11-02T18:18:56.150Z,101624.28
2022-11-02T18:21:22.452Z,101629.75
2022-11-02T18:23:48.746Z,101621.75
2022-11-02T18:26:15.047Z,101626.28
2022-11-02T18:28:41.344Z,101622.78
2022-11-02T18:31:09.110Z,101615.47
2022-11-02T18:33:35.464Z,101616.06
2022-11-02T18:36:02.572Z,101601.16
2022-11-02T18:38:28.855Z,101605.78
2022-11-02T18:40:55.171Z,101611.97
2022-11-02T18:43:21.434Z,101603.69
2022-11-02T18:45:47.731Z,101596.00
2022-11-02T18:48:15.374Z,101597.97
2022-11-02T18:50:41.629Z,101596.16
2022-11-02T18:53:07.913Z,101599.09
2022-11-02T18:55:34.218Z,101598.13
2022-11-02T18:58:00.491Z,101593.09
2022-11-02T19:00:26.782Z,101590.69
2022-11-02T19:02:53.061Z,101589.19
2022-11-02T19:05:20.733Z,101583.16
2022-11-02T19:07:47.047Z,101583.44
2022-11-02T19:10:13.327Z,101580.09
2022-11-02T19:12:39.638Z,101575.59
2022-11-02T19:15:06.472Z,101575.03
2022-11-02T19:17:32.822Z,101574.06
2022-11-02T19:19:59.110Z,101570.56
2022-11-02T19:22:26.924Z,101568.50
2022-11-02T19:24:53.259Z,101566.94
2022-11-02T19:27:20.596Z,101559.25
2022-11-02T19:29:47.091Z,101555.06
2022-11-02T19:32:13.663Z,101551.72
2022-11-02T19:34:40.247Z,101545.13
2022-11-02T19:37:07.261Z,101536.31
2022-11-02T19:39:35.071Z,101527.09
2022-11-02T19:42:01.691Z,101525.44
2022-11-02T19:44:27.976Z,101521.09
2022-11-02T19:46:54.271Z,101518.69
2022-11-02T19:49:20.570Z,101517.72
2022-11-02T19:51:46.943Z,101494.09
2022-11-02T19:54:13.233Z,101508.38
2022-11-02T19:56:40.838Z,101502.06
2022-11-02T19:59:07.161Z,101516.03
2022-11-02T20:01:35.144Z,101503.19
2022-11-02T20:04:01.572Z,101496.34
2022-11-02T20:06:28.680Z,101485.44
2022-11-02T20:08:55.888Z,101479.25
2022-11-02T20:11:22.618Z,101481.22
2022-11-02T20:13:50.360Z,101478.56
2022-11-02T20:16:18.110Z,101471.28
2022-11-02T20:18:45.032Z,101480.63
2022-11-02T20:21:12.312Z,101468.78
2022-11-02T20:23:39.119Z,101460.66
2022-11-02T20:26:07.025Z,101468.63
2022-11-02T20:28:35.961Z,101458.28
2022-11-02T20:31:06.521Z,101457.44
2022-11-02T20:33:33.071Z,101458.13
2022-11-02T20:35:59.372Z,101460.66
2022-11-02T20:38:25.676Z,101463.19
2022-11-02T20:40:51.988Z,101458.97
2022-11-02T20:43:18.293Z,101455.63
2022-11-02T20:45:44.548Z,101457.28
2022-11-02T20:48:12.259Z,101448.19
2022-11-02T20:50:38.571Z,101448.34
2022-11-02T20:53:05.141Z,101445.53
2022-11-02T20:55:31.581Z,101441.19
2022-11-02T20:57:57.863Z,101436.59
2022-11-02T21:00:24.196Z,101436.72
2022-11-02T21:02:51.326Z,101438.53
2022-11-02T21:05:18.930Z,101435.59
2022-11-02T21:07:45.195Z,101433.91
2022-11-02T21:10:11.501Z,101430.44
2022-11-02T21:12:37.964Z,101432.94
2022-11-02T21:15:04.644Z,101419.94
2022-11-02T21:17:30.947Z,101422.59
2022-11-02T21:19:58.152Z,101421.88
2022-11-02T21:22:41.653Z,101414.75
2022-11-02T21:25:08.430Z,101409.56
2022-11-02T21:27:34.767Z,101415.88
2022-11-02T21:30:01.073Z,101408.75
2022-11-02T21:32:27.365Z,101402.72
2022-11-02T21:34:53.640Z,101403.69
2022-11-02T21:37:19.907Z,101390.41
2022-11-02T21:39:47.520Z,101399.22
2022-11-02T21:42:13.856Z,101402.34
2022-11-02T21:44:40.199Z,101400.50
2022-11-02T21:47:06.518Z,101394.34
2022-11-02T21:49:32.804Z,101387.22
2022-11-02T21:51:59.074Z,101392.41
2022-11-02T21:54:25.392Z,101391.56
2022-11-02T21:56:53.007Z,101386.09
2022-11-02T21:59:19.287Z,101389.75
2022-11-02T22:01:45.937Z,101389.75
2022-11-02T22:04:13.222Z,101390.81
2022-11-02T22:06:40.538Z,101385.22
2022-11-02T22:09:07.739Z,101379.75
2022-11-02T22:11:34.403Z,101379.75
2022-11-02T22:14:02.243Z,101372.63
2022-11-02T22:16:29.386Z,101365.44
2022-11-02T22:18:56.759Z,101359.00
2022-11-02T22:21:23.554Z,101352.84
2022-11-02T22:23:50.200Z,101364.19
2022-11-02T22:26:17.790Z,101362.22
2022-11-02T22:28:44.999Z,101355.63
2022-11-02T22:31:13.620Z,101360.63
2022-11-02T22:33:41.568Z,101352.81
2022-11-02T22:36:08.842Z,101346.22
2022-11-02T22:38:35.305Z,101346.06
2022-11-02T22:41:01.801Z,101348.03
2022-11-02T22:43:28.879Z,101332.91
2022-11-02T22:46:02.176Z,101330.94
2022-11-02T22:48:29.917Z,101329.28
2022-11-02T22:50:56.204Z,101325.09
2022-11-02T22:53:22.780Z,101322.41
2022-11-02T22:55:55.827Z,101317.78
2022-11-02T22:58:22.107Z,101319.19
2022-11-02T23:00:48.389Z,101312.34
2022-11-02T23:03:14.720Z,101307.72
2022-11-02T23:05:43.115Z,101308.41
2022-11-02T23:08:09.405Z,101301.63
2022-11-02T23:10:35.804Z,101302.63
2022-11-02T23:13:02.067Z,101303.31
2022-11-02T23:15:29.159Z,101304.00
2022-11-02T23:17:55.442Z,101285.03
2022-11-02T23:20:21.729Z,101286.72
2022-11-02T23:22:49.345Z,101285.75
2022-11-02T23:25:15.678Z,101272.13
2022-11-02T23:27:43.114Z,101275.50
2022-11-02T23:30:09.916Z,101277.69
2022-11-02T23:32:36.375Z,101268.56
2022-11-02T23:35:02.728Z,101269.41
2022-11-02T23:37:29.136Z,101269.94
2022-11-02T23:39:56.774Z,101270.44
2022-11-02T23:42:23.507Z,101277.44
2022-11-02T23:44:49.810Z,101271.47
2022-11-02T23:47:16.437Z,101265.66
2022-11-02T23:49:42.717Z,101266.66
2022-11-02T23:52:11.374Z,101264.13
2022-11-02T23:54:37.658Z,101256.94
2022-11-02T23:57:05.297Z,101258.47
2022-11-02T23:59:31.585Z,101249.78
